Time;durP1;ratioP1;P1;durP2;ratioP2;P2;SDS_P1;SDS_P2;PMS_P1;PMS_P2;Temp;Humidity;BMP_temperature;BMP_pressure;BME280_temperature;BME280_humidity;BME280_pressure;Samples;Min_cycle;Max_cycle;Signal;HPM_P1;HPM_P2
2022/10/07 00:02:16;;;;;;;5.50;2.97;;;13.30;99.90;;;;;;5089116;28;20628;-89
2022/10/07 00:04:45;;;;;;;7.30;2.90;;;13.30;99.90;;;;;;5095702;28;20631;-89
2022/10/07 00:07:12;;;;;;;5.80;3.40;;;13.30;99.90;;;;;;5098953;28;21045;-89
2022/10/07 00:09:39;;;;;;;7.77;4.03;;;13.30;99.90;;;;;;5090909;28;20644;-89
2022/10/07 00:12:06;;;;;;;7.20;3.03;;;13.00;99.90;;;;;;5090955;28;20627;-88
2022/10/07 00:14:33;;;;;;;3.40;2.90;;;13.30;99.90;;;;;;5085623;28;20624;-88
2022/10/07 00:16:59;;;;;;;5.53;3.20;;;13.10;99.90;;;;;;5092955;28;20641;-88
2022/10/07 00:19:28;;;;;;;7.43;2.53;;;12.90;99.90;;;;;;5100258;28;20643;-88
2022/10/07 00:21:54;;;;;;;4.23;2.70;;;13.40;99.90;;;;;;5112741;28;20630;-88
2022/10/07 00:24:21;;;;;;;4.87;2.90;;;13.30;99.90;;;;;;5106902;28;20663;-89
2022/10/07 00:26:48;;;;;;;4.80;3.10;;;13.20;99.90;;;;;;5107753;28;20703;-88
2022/10/07 00:29:15;;;;;;;4.70;2.80;;;13.40;99.90;;;;;;5111867;28;20616;-87
2022/10/07 00:31:42;;;;;;;4.73;3.40;;;13.60;99.90;;;;;;5096450;28;20635;-88
2022/10/07 00:34:11;;;;;;;9.40;4.20;;;13.60;99.90;;;;;;5083863;28;20640;-89
2022/10/07 00:36:40;;;;;;;7.03;4.37;;;13.40;99.90;;;;;;5082528;28;20632;-88
2022/10/07 00:39:10;;;;;;;6.20;5.10;;;13.60;99.90;;;;;;5087933;28;20660;-88
2022/10/07 00:41:39;;;;;;;9.73;5.03;;;13.60;99.90;;;;;;5084264;28;20624;-90
2022/10/07 00:44:43;;;;;;;8.20;5.07;;;13.60;99.90;;;;;;5090829;28;20672;-88
2022/10/07 00:47:22;;;;;;;6.47;5.73;;;13.60;99.90;;;;;;5089280;28;20619;-88
2022/10/07 00:49:53;;;;;;;7.30;5.97;;;13.50;99.90;;;;;;5090236;28;21237;-88
2022/10/07 00:52:30;;;;;;;7.77;6.90;;;13.50;99.90;;;;;;5087948;28;21318;-88
2022/10/07 00:54:59;;;;;;;6.97;5.20;;;13.40;99.90;;;;;;5088938;28;21121;-88
2022/10/07 00:57:30;;;;;;;8.13;5.37;;;13.40;99.90;;;;;;5088213;28;20628;-88
2022/10/07 00:59:58;;;;;;;15.00;6.10;;;13.10;99.90;;;;;;5083644;28;20652;-88
2022/10/07 01:02:25;;;;;;;8.17;5.53;;;13.40;99.90;;;;;;5086726;28;20641;-88
2022/10/07 01:04:54;;;;;;;7.67;6.87;;;13.40;99.90;;;;;;5086693;28;20662;-88
2022/10/07 01:07:22;;;;;;;8.03;5.63;;;13.10;99.90;;;;;;5091135;28;20669;-88
2022/10/07 01:09:52;;;;;;;8.27;5.67;;;13.50;99.90;;;;;;5083605;28;20667;-88
2022/10/07 01:12:27;;;;;;;8.10;5.60;;;13.40;99.90;;;;;;5086182;28;21001;-88
2022/10/07 01:15:00;;;;;;;6.57;5.87;;;13.50;99.90;;;;;;5085769;28;20638;-89
2022/10/07 01:17:32;;;;;;;9.13;6.27;;;13.30;99.90;;;;;;5087203;28;20619;-88
2022/10/07 01:20:30;;;;;;;5.87;5.20;;;13.40;99.90;;;;;;5086843;28;20659;-88
2022/10/07 01:23:16;;;;;;;10.03;5.90;;;13.40;99.90;;;;;;5085226;28;20630;-88
2022/10/07 01:26:03;;;;;;;7.17;5.23;;;13.20;99.90;;;;;;5085001;28;20620;-88
2022/10/07 01:28:37;;;;;;;7.97;5.90;;;13.50;99.90;;;;;;5085810;28;20742;-89
2022/10/07 01:31:06;;;;;;;11.67;5.70;;;13.50;99.90;;;;;;5085588;28;20614;-89
2022/10/07 01:33:34;;;;;;;11.77;5.90;;;13.50;99.90;;;;;;5084204;28;21178;-89
2022/10/07 01:36:07;;;;;;;10.00;5.40;;;13.60;99.90;;;;;;5084321;28;20647;-88
2022/10/07 01:38:36;;;;;;;6.43;5.00;;;13.50;99.90;;;;;;5083725;28;21070;-88
2022/10/07 01:41:10;;;;;;;11.90;6.03;;;13.50;99.90;;;;;;5086803;28;20636;-88
2022/10/07 01:43:40;;;;;;;10.60;6.80;;;13.50;99.90;;;;;;5083706;28;20667;-88
2022/10/07 01:46:11;;;;;;;8.53;6.17;;;13.00;99.90;;;;;;5082884;28;20628;-88
2022/10/07 01:48:38;;;;;;;11.20;6.60;;;13.10;99.90;;;;;;5086162;28;20664;-89
2022/10/07 01:51:07;;;;;;;10.53;5.40;;;13.40;99.90;;;;;;5094706;28;21201;-88
2022/10/07 01:53:44;;;;;;;10.00;6.57;;;13.40;99.90;;;;;;5086822;28;21178;-88
2022/10/07 01:56:37;;;;;;;9.00;6.50;;;13.20;99.90;;;;;;5087946;28;20631;-89
2022/10/07 01:59:33;;;;;;;9.77;6.27;;;13.50;99.90;;;;;;5087983;28;20651;-89
2022/10/07 02:02:05;;;;;;;8.63;6.50;;;13.40;99.90;;;;;;5085350;28;21038;-89
2022/10/07 02:04:45;;;;;;;9.83;6.27;;;13.00;99.90;;;;;;5084496;28;20671;-89
2022/10/07 02:07:24;;;;;;;9.33;5.63;;;13.40;99.90;;;;;;5083772;28;20807;-89
2022/10/07 02:09:57;;;;;;;10.40;5.47;;;13.40;99.90;;;;;;5093972;28;20655;-89
2022/10/07 02:12:27;;;;;;;7.60;5.37;;;13.50;99.90;;;;;;5094135;28;20623;-89
2022/10/07 02:15:02;;;;;;;6.10;4.73;;;13.40;99.90;;;;;;5091092;28;20627;-89
2022/10/07 02:17:34;;;;;;;6.90;5.60;;;13.30;99.90;;;;;;5096841;28;20616;-89
2022/10/07 02:20:02;;;;;;;6.30;5.40;;;13.50;99.90;;;;;;5086677;28;20679;-89
2022/10/07 02:22:31;;;;;;;6.90;5.33;;;13.50;99.90;;;;;;5092638;28;20627;-89
2022/10/07 02:24:59;;;;;;;10.60;6.50;;;13.40;99.90;;;;;;5094519;28;20677;-89
2022/10/07 02:27:31;;;;;;;8.80;7.00;;;13.40;99.90;;;;;;5093019;28;20629;-89
2022/10/07 02:30:02;;;;;;;5.63;4.40;;;13.40;99.90;;;;;;5087537;28;20645;-88
2022/10/07 02:32:31;;;;;;;10.20;6.87;;;13.30;99.90;;;;;;5089630;28;20639;-89
2022/10/07 02:35:05;;;;;;;8.00;5.27;;;13.20;99.90;;;;;;5092812;28;20622;-88
2022/10/07 02:37:36;;;;;;;6.70;6.00;;;13.10;99.90;;;;;;5086048;28;20635;-88
2022/10/07 02:40:04;;;;;;;6.80;5.30;;;13.20;99.90;;;;;;5091017;28;20658;-88
2022/10/07 02:42:37;;;;;;;8.60;5.80;;;13.40;99.90;;;;;;5084390;28;20625;-88
2022/10/07 02:45:14;;;;;;;11.17;5.27;;;13.10;99.90;;;;;;5083152;28;20667;-88
2022/10/07 02:47:45;;;;;;;9.23;6.00;;;13.40;99.90;;;;;;5094334;28;21244;-88
2022/10/07 02:50:19;;;;;;;9.30;6.70;;;13.40;99.90;;;;;;5082039;28;20695;-88
2022/10/07 02:52:47;;;;;;;9.77;6.00;;;13.40;99.90;;;;;;5095572;28;20626;-88
2022/10/07 02:55:17;;;;;;;5.27;4.47;;;12.90;99.90;;;;;;5084680;28;20967;-88
2022/10/07 02:57:47;;;;;;;9.40;5.37;;;12.90;99.90;;;;;;5088341;28;20628;-87
2022/10/07 03:00:18;;;;;;;5.97;5.27;;;13.40;99.90;;;;;;5088069;28;20655;-88
2022/10/07 03:02:49;;;;;;;6.33;5.57;;;13.40;99.90;;;;;;5089531;28;20620;-88
2022/10/07 03:05:18;;;;;;;6.43;5.70;;;13.20;99.90;;;;;;5086691;28;20652;-88
2022/10/07 03:07:45;;;;;;;6.27;5.67;;;13.40;99.90;;;;;;5084679;28;20637;-87
2022/10/07 03:10:13;;;;;;;7.00;6.00;;;13.10;99.90;;;;;;5083458;28;20662;-88
2022/10/07 03:12:41;;;;;;;8.93;6.07;;;13.00;99.90;;;;;;5087950;28;20627;-88
2022/10/07 03:15:10;;;;;;;9.63;6.20;;;13.40;99.90;;;;;;5083708;28;21132;-88
2022/10/07 03:17:38;;;;;;;6.53;5.50;;;13.50;99.90;;;;;;5089642;28;20651;-88
2022/10/07 03:20:06;;;;;;;7.23;6.53;;;13.40;99.90;;;;;;5080799;28;20656;-88
2022/10/07 03:22:33;;;;;;;6.53;4.93;;;13.40;99.90;;;;;;5087243;28;20622;-88
2022/10/07 03:25:00;;;;;;;15.33;5.80;;;13.40;99.90;;;;;;5090180;28;21038;-88
2022/10/07 03:27:27;;;;;;;8.37;5.60;;;13.50;99.90;;;;;;5091703;28;20632;-88
2022/10/07 03:29:57;;;;;;;7.80;5.37;;;13.10;99.90;;;;;;5082740;28;20659;-87
2022/10/07 03:32:24;;;;;;;6.70;5.47;;;13.50;99.90;;;;;;5088295;28;21195;-88
2022/10/07 03:34:53;;;;;;;6.30;5.50;;;13.50;99.90;;;;;;5090490;28;21054;-88
2022/10/07 03:37:20;;;;;;;6.07;5.17;;;13.10;99.90;;;;;;5093390;28;20624;-88
2022/10/07 03:39:47;;;;;;;9.07;4.80;;;13.50;99.90;;;;;;5092970;28;20667;-88
2022/10/07 03:42:13;;;;;;;6.80;5.53;;;13.50;99.90;;;;;;5084719;28;20631;-88
2022/10/07 03:44:40;;;;;;;10.93;5.70;;;13.50;99.90;;;;;;5086813;28;21134;-87
2022/10/07 03:47:08;;;;;;;6.90;5.33;;;13.50;99.90;;;;;;5096895;28;20635;-87
2022/10/07 03:49:34;;;;;;;7.17;5.50;;;13.50;99.90;;;;;;5093033;28;20659;-88
2022/10/07 03:52:05;;;;;;;12.10;5.43;;;13.00;99.90;;;;;;5092631;28;20635;-89
2022/10/07 03:54:32;;;;;;;8.63;5.17;;;13.50;99.90;;;;;;5084919;28;20628;-88
2022/10/07 03:56:59;;;;;;;10.13;5.23;;;13.50;99.90;;;;;;5082769;28;21060;-88
2022/10/07 03:59:26;;;;;;;5.77;4.40;;;13.60;99.90;;;;;;5092364;28;20648;-88
2022/10/07 04:01:53;;;;;;;7.13;4.90;;;13.50;99.90;;;;;;5088327;28;21154;-89
2022/10/07 04:04:20;;;;;;;7.13;4.57;;;13.50;99.90;;;;;;5094587;28;21032;-90
2022/10/07 04:06:46;;;;;;;8.67;4.93;;;13.40;99.90;;;;;;5096702;28;21098;-89
2022/10/07 04:09:15;;;;;;;7.13;5.10;;;13.40;99.90;;;;;;5089232;28;20664;-88
2022/10/07 04:11:42;;;;;;;7.50;5.20;;;13.30;99.90;;;;;;5088604;28;20628;-90
2022/10/07 04:14:09;;;;;;;8.40;6.07;;;13.30;99.90;;;;;;5091806;28;20632;-88
2022/10/07 04:16:37;;;;;;;6.50;4.87;;;13.30;99.90;;;;;;5083451;28;20636;-87
2022/10/07 04:19:04;;;;;;;6.90;5.83;;;13.20;99.90;;;;;;5087331;28;20648;-88
2022/10/07 04:21:31;;;;;;;7.67;5.00;;;13.10;99.90;;;;;;5088795;28;20674;-88
2022/10/07 04:23:58;;;;;;;6.57;5.67;;;12.80;99.90;;;;;;5087963;28;20651;-88
2022/10/07 04:26:26;;;;;;;7.73;5.63;;;12.90;99.90;;;;;;5089197;28;20631;-88
2022/10/07 04:28:53;;;;;;;10.17;6.33;;;13.30;99.90;;;;;;5089936;28;21226;-88
2022/10/07 04:31:20;;;;;;;9.17;4.97;;;13.20;99.90;;;;;;5093403;28;20628;-89
2022/10/07 04:33:46;;;;;;;6.90;5.80;;;12.90;99.90;;;;;;5088959;28;20647;-89
2022/10/07 04:36:13;;;;;;;10.63;5.50;;;13.30;99.90;;;;;;5090174;28;20628;-89
2022/10/07 04:38:41;;;;;;;6.93;5.23;;;13.30;99.90;;;;;;5090051;28;20644;-88
2022/10/07 04:41:08;;;;;;;6.40;4.97;;;13.00;99.90;;;;;;5085942;28;20914;-88
2022/10/07 04:43:36;;;;;;;10.80;5.20;;;13.30;99.90;;;;;;5095329;28;21276;-88
2022/10/07 04:46:05;;;;;;;5.63;5.13;;;13.40;99.90;;;;;;5088541;28;21460;-88
2022/10/07 04:48:33;;;;;;;8.77;5.50;;;13.40;99.90;;;;;;5093567;28;20651;-89
2022/10/07 04:51:03;;;;;;;7.33;5.10;;;13.40;99.90;;;;;;5090343;28;20866;-88
2022/10/07 04:53:31;;;;;;;9.20;5.10;;;13.50;99.90;;;;;;5089952;28;20620;-89
2022/10/07 04:55:58;;;;;;;6.47;4.93;;;13.40;99.90;;;;;;5091292;28;20742;-88
2022/10/07 04:58:29;;;;;;;6.80;5.10;;;13.50;99.90;;;;;;5082793;28;20725;-89
2022/10/07 05:00:59;;;;;;;11.57;5.30;;;13.10;99.90;;;;;;5093974;28;20587;-88
2022/10/07 05:03:28;;;;;;;7.03;4.80;;;13.50;99.90;;;;;;5083625;28;20652;-88
2022/10/07 05:06:01;;;;;;;9.27;5.07;;;13.10;99.90;;;;;;5083800;28;21033;-88
2022/10/07 05:08:27;;;;;;;7.07;4.90;;;13.20;99.90;;;;;;5089153;28;20656;-88
2022/10/07 05:10:55;;;;;;;8.07;5.70;;;12.90;99.90;;;;;;5082640;28;20639;-88
2022/10/07 05:13:23;;;;;;;8.37;4.90;;;13.10;99.90;;;;;;5094252;28;20624;-88
2022/10/07 05:15:51;;;;;;;6.77;5.20;;;13.20;99.90;;;;;;5079582;28;20625;-89
2022/10/07 05:18:21;;;;;;;8.13;4.40;;;13.30;99.90;;;;;;5097122;28;20675;-88
2022/10/07 05:20:48;;;;;;;6.70;4.33;;;13.30;99.90;;;;;;5089946;28;20993;-87
2022/10/07 05:23:16;;;;;;;12.53;4.80;;;13.20;99.90;;;;;;5088667;28;21007;-88
2022/10/07 05:25:43;;;;;;;7.03;4.33;;;13.10;99.90;;;;;;5090667;28;20668;-88
2022/10/07 05:28:10;;;;;;;8.53;5.20;;;13.40;99.90;;;;;;5082317;28;20689;-88
2022/10/07 05:30:37;;;;;;;6.90;4.40;;;13.20;99.90;;;;;;5090901;28;20624;-88
2022/10/07 05:33:04;;;;;;;5.53;4.37;;;13.40;99.90;;;;;;5085968;28;21185;-89
2022/10/07 05:35:33;;;;;;;9.03;4.60;;;13.10;99.90;;;;;;5096870;28;20629;-89
2022/10/07 05:38:00;;;;;;;6.30;4.13;;;13.10;99.90;;;;;;5092296;28;20687;-89
2022/10/07 05:40:27;;;;;;;6.97;4.50;;;13.60;99.90;;;;;;5095263;28;20648;-91
2022/10/07 05:42:54;;;;;;;8.40;6.03;;;13.60;99.90;;;;;;5094515;28;20634;-89
2022/10/07 05:45:21;;;;;;;7.70;4.37;;;13.60;99.90;;;;;;5085363;28;21088;-90
2022/10/07 05:47:50;;;;;;;8.13;5.37;;;13.40;99.90;;;;;;5091123;28;20675;-90
2022/10/07 05:50:18;;;;;;;9.30;5.30;;;13.70;99.90;;;;;;5096061;28;20632;-92
2022/10/07 05:52:46;;;;;;;9.37;5.77;;;13.70;99.90;;;;;;5095686;28;20635;-91
2022/10/07 05:55:16;;;;;;;6.00;4.80;;;13.70;99.90;;;;;;5092653;28;20632;-91
2022/10/07 05:57:44;;;;;;;11.10;5.70;;;13.70;99.90;;;;;;5089710;28;20671;-92
2022/10/07 06:00:12;;;;;;;8.33;5.50;;;13.80;99.90;;;;;;5088721;28;20646;-92
2022/10/07 06:02:43;;;;;;;9.03;4.20;;;13.90;99.90;;;;;;5091339;28;21339;-92
2022/10/07 06:05:10;;;;;;;5.57;4.27;;;14.00;99.90;;;;;;5097237;28;20652;-91
2022/10/07 06:07:37;;;;;;;9.13;5.00;;;14.00;99.90;;;;;;5114449;28;20999;-92
2022/10/07 06:13:10;;;;;;;7.27;5.00;;;14.30;99.90;;;;;;5107950;28;20654;-92
2022/10/07 06:15:37;;;;;;;11.50;6.10;;;14.40;99.90;;;;;;5103082;28;20627;-92
2022/10/07 06:18:04;;;;;;;10.53;7.13;;;14.40;99.90;;;;;;5094658;28;20754;-92
2022/10/07 06:20:33;;;;;;;6.80;5.43;;;14.50;99.90;;;;;;5088248;28;20876;-92
2022/10/07 06:23:00;;;;;;;8.03;4.50;;;14.50;99.90;;;;;;5098617;28;20619;-91
2022/10/07 06:25:29;;;;;;;8.03;4.90;;;14.30;99.90;;;;;;5100678;28;20732;-91
2022/10/07 06:27:57;;;;;;;10.87;5.50;;;14.20;99.90;;;;;;5096737;28;20681;-93
2022/10/07 06:30:24;;;;;;;11.40;6.00;;;14.10;99.90;;;;;;5097266;28;21236;-91
2022/10/07 06:32:51;;;;;;;7.40;5.73;;;14.20;99.90;;;;;;5095477;28;20643;-91
2022/10/07 06:35:18;;;;;;;7.40;5.63;;;14.20;99.90;;;;;;5101813;28;20703;-90
2022/10/07 06:37:45;;;;;;;10.03;6.00;;;14.10;99.90;;;;;;5103616;28;20708;-91
2022/10/07 06:40:12;;;;;;;10.30;5.90;;;14.00;99.90;;;;;;5104057;28;20647;-91
2022/10/07 06:42:40;;;;;;;13.93;7.67;;;14.10;99.90;;;;;;5109817;28;20739;-90
2022/10/07 06:45:09;;;;;;;12.43;7.27;;;14.40;99.90;;;;;;5107698;28;20783;-91
2022/10/07 06:47:37;;;;;;;12.40;7.70;;;14.40;99.90;;;;;;5109774;28;20647;-89
2022/10/07 06:50:05;;;;;;;15.33;7.33;;;14.60;99.90;;;;;;5102806;28;20635;-90
2022/10/07 06:52:32;;;;;;;12.20;7.17;;;14.50;99.90;;;;;;5089485;28;20706;-91
2022/10/07 06:54:59;;;;;;;10.40;6.70;;;14.60;99.90;;;;;;5093983;28;20722;-91
2022/10/07 06:57:25;;;;;;;9.83;6.17;;;14.50;99.90;;;;;;5097631;28;20688;-90
2022/10/07 06:59:56;;;;;;;9.67;5.90;;;14.50;99.90;;;;;;5092974;28;20707;-89
2022/10/07 07:02:24;;;;;;;8.23;6.43;;;14.70;99.90;;;;;;5091009;28;20722;-90
2022/10/07 07:04:51;;;;;;;10.37;5.80;;;14.70;99.90;;;;;;5085377;28;20702;-89
2022/10/07 07:07:17;;;;;;;11.67;6.43;;;14.50;99.90;;;;;;5089258;28;21210;-89
2022/10/07 07:09:46;;;;;;;11.67;6.47;;;14.70;99.90;;;;;;5096930;28;20654;-88
2022/10/07 07:12:13;;;;;;;9.97;6.83;;;14.70;99.90;;;;;;5088255;28;20724;-87
2022/10/07 07:14:42;;;;;;;8.63;7.73;;;14.90;99.90;;;;;;5091997;28;20722;-89
2022/10/07 07:17:10;;;;;;;11.73;7.73;;;14.90;99.90;;;;;;5098287;28;20691;-89
2022/10/07 07:19:37;;;;;;;12.93;6.87;;;15.10;99.90;;;;;;5087056;28;20642;-89
2022/10/07 07:22:04;;;;;;;13.73;7.67;;;15.10;99.90;;;;;;5092041;28;20639;-89
2022/10/07 07:24:31;;;;;;;9.80;7.30;;;15.20;99.90;;;;;;5092386;28;20632;-89
2022/10/07 07:26:58;;;;;;;14.37;7.20;;;15.50;99.90;;;;;;5092096;28;21229;-89
2022/10/07 07:29:26;;;;;;;12.70;6.40;;;15.50;99.90;;;;;;5089246;28;21060;-90
2022/10/07 07:31:53;;;;;;;9.60;6.03;;;15.50;99.90;;;;;;5091010;28;20721;-91
2022/10/07 07:34:22;;;;;;;9.03;6.03;;;15.60;99.90;;;;;;5095323;28;21235;-89
2022/10/07 07:36:51;;;;;;;8.03;5.23;;;15.80;99.90;;;;;;5088014;28;20687;-90
2022/10/07 07:39:18;;;;;;;10.50;5.60;;;15.40;99.90;;;;;;5092188;28;20709;-89
2022/10/07 07:41:46;;;;;;;11.30;5.60;;;15.40;99.90;;;;;;5092511;28;20719;-89
2022/10/07 07:44:15;;;;;;;12.50;4.93;;;15.50;99.90;;;;;;5091311;28;20734;-91
2022/10/07 07:46:44;;;;;;;6.73;6.03;;;15.50;99.90;;;;;;5093006;28;20676;-90
2022/10/07 07:49:12;;;;;;;7.40;6.07;;;15.30;99.90;;;;;;5090557;28;20643;-90
2022/10/07 07:51:43;;;;;;;7.90;5.20;;;15.70;99.90;;;;;;5090785;28;20620;-90
2022/10/07 07:54:11;;;;;;;9.13;6.00;;;15.80;99.90;;;;;;5093523;28;20624;-92
2022/10/07 07:56:39;;;;;;;6.27;5.10;;;16.10;99.90;;;;;;5093109;28;20639;-90
2022/10/07 07:59:08;;;;;;;5.63;4.50;;;16.20;99.90;;;;;;5089389;28;20630;-90
2022/10/07 08:01:36;;;;;;;6.40;5.50;;;16.10;99.90;;;;;;5090694;28;21260;-88
2022/10/07 08:04:04;;;;;;;9.20;5.77;;;15.90;99.90;;;;;;5092720;28;20630;-90
2022/10/07 08:06:31;;;;;;;9.70;5.20;;;16.20;99.90;;;;;;5098361;28;20706;-88
2022/10/07 08:08:59;;;;;;;11.97;5.73;;;16.10;99.90;;;;;;5091689;28;20650;-88
2022/10/07 08:11:27;;;;;;;7.93;5.57;;;16.40;99.90;;;;;;5091552;28;20966;-89
2022/10/07 08:13:55;;;;;;;6.47;5.23;;;16.10;99.90;;;;;;5088047;28;20642;-89
2022/10/07 08:16:24;;;;;;;8.50;5.17;;;16.50;99.90;;;;;;5083065;28;20664;-87
2022/10/07 08:18:53;;;;;;;5.53;4.50;;;16.20;99.90;;;;;;5087549;28;20627;-91
2022/10/07 08:21:21;;;;;;;7.70;4.30;;;16.10;99.90;;;;;;5095939;28;21289;-89
2022/10/07 08:23:51;;;;;;;9.20;4.70;;;16.70;99.90;;;;;;5094031;28;20611;-89
2022/10/07 08:26:19;;;;;;;9.03;4.67;;;16.70;99.90;;;;;;5093864;28;21200;-89
2022/10/07 08:28:47;;;;;;;7.33;4.37;;;16.60;99.90;;;;;;5092582;28;20627;-89
2022/10/07 08:31:16;;;;;;;6.60;4.40;;;17.00;99.90;;;;;;5084842;28;20627;-89
2022/10/07 08:33:44;;;;;;;11.80;4.60;;;17.40;99.90;;;;;;5088410;28;20643;-91
2022/10/07 08:36:13;;;;;;;7.83;5.30;;;17.20;99.90;;;;;;5096717;28;20632;-90
2022/10/07 08:38:41;;;;;;;6.53;4.00;;;17.30;99.90;;;;;;5095577;28;20692;-91
2022/10/07 08:41:21;;;;;;;4.77;4.10;;;16.70;99.90;;;;;;5093090;28;20645;-91
2022/10/07 08:43:51;;;;;;;7.00;4.70;;;17.10;99.90;;;;;;5090660;28;20620;-90
2022/10/07 08:46:20;;;;;;;8.63;4.30;;;17.40;99.90;;;;;;5092115;28;20675;-90
2022/10/07 08:48:52;;;;;;;9.53;4.03;;;17.70;99.90;;;;;;5090143;28;20631;-91
2022/10/07 08:51:24;;;;;;;4.70;4.03;;;17.70;99.90;;;;;;5084745;28;20635;-89
2022/10/07 08:53:54;;;;;;;5.30;3.30;;;17.80;99.90;;;;;;5083177;28;21043;-89
2022/10/07 08:56:24;;;;;;;4.83;3.77;;;18.00;99.90;;;;;;5090895;28;20659;-91
2022/10/07 08:59:02;;;;;;;4.70;4.07;;;18.20;99.90;;;;;;5090329;28;20676;-91
2022/10/07 09:01:38;;;;;;;5.73;3.63;;;17.70;99.90;;;;;;5095177;28;21113;-90
2022/10/07 09:04:19;;;;;;;5.83;3.60;;;17.90;99.90;;;;;;5088791;28;20635;-91
2022/10/07 09:06:54;;;;;;;4.53;2.80;;;17.80;99.90;;;;;;5090059;28;21213;-91
2022/10/07 09:09:26;;;;;;;7.17;3.97;;;17.70;99.90;;;;;;5093591;28;20631;-90
2022/10/07 09:11:56;;;;;;;3.90;3.60;;;17.70;99.90;;;;;;5068614;28;20628;-91
2022/10/07 09:14:29;;;;;;;5.13;4.20;;;17.30;99.90;;;;;;5091506;28;20629;-90
2022/10/07 09:17:03;;;;;;;6.23;3.50;;;17.50;99.90;;;;;;5081757;28;21021;-89
2022/10/07 09:19:35;;;;;;;4.77;4.27;;;17.40;99.90;;;;;;5090688;28;20616;-89
2022/10/07 09:22:05;;;;;;;5.03;4.50;;;17.40;99.90;;;;;;5088247;28;20628;-90
2022/10/07 09:24:34;;;;;;;6.27;5.13;;;17.70;99.90;;;;;;5084700;28;20665;-90
2022/10/07 09:27:07;;;;;;;6.73;4.27;;;17.70;99.90;;;;;;5089045;28;21208;-90
2022/10/07 09:29:37;;;;;;;8.23;4.97;;;17.90;99.90;;;;;;5091370;28;20619;-90
2022/10/07 09:32:04;;;;;;;5.10;4.37;;;18.40;99.90;;;;;;5087774;28;20638;-91
2022/10/07 09:34:31;;;;;;;6.00;4.97;;;18.40;99.90;;;;;;5093439;28;20982;-90
2022/10/07 09:37:16;;;;;;;6.83;5.10;;;18.50;99.90;;;;;;5089215;28;20644;-89
2022/10/07 09:39:45;;;;;;;7.70;4.60;;;17.90;99.90;;;;;;5084498;28;20624;-90
2022/10/07 09:42:29;;;;;;;6.17;5.57;;;18.50;99.90;;;;;;5085625;28;20719;-89
2022/10/07 09:45:01;;;;;;;8.90;5.73;;;18.30;99.90;;;;;;5084450;28;20605;-90
2022/10/07 09:47:31;;;;;;;6.83;6.13;;;19.10;99.90;;;;;;5086684;28;20740;-91
2022/10/07 09:49:59;;;;;;;4.97;4.47;;;19.10;99.90;;;;;;5088747;28;20735;-91
2022/10/07 09:52:28;;;;;;;9.03;5.63;;;19.00;99.90;;;;;;5089570;28;20625;-91
2022/10/07 09:54:57;;;;;;;6.13;5.10;;;19.50;99.90;;;;;;5100058;28;20629;-90
2022/10/07 09:57:30;;;;;;;8.27;6.13;;;18.90;99.90;;;;;;5094838;28;20780;-92
2022/10/07 10:00:24;;;;;;;5.33;4.63;;;19.20;99.90;;;;;;5083232;28;20608;-92
2022/10/07 10:02:54;;;;;;;5.67;5.10;;;20.20;99.90;;;;;;5088954;28;20692;-93
2022/10/07 10:05:24;;;;;;;7.83;5.60;;;20.10;99.90;;;;;;5087485;28;20627;-93
2022/10/07 10:07:57;;;;;;;5.70;5.17;;;20.40;99.90;;;;;;5087030;28;20789;-92
2022/10/07 10:10:27;;;;;;;6.13;5.60;;;21.50;99.90;;;;;;5089896;28;20704;-92
2022/10/07 10:12:56;;;;;;;6.93;6.23;;;21.60;99.90;;;;;;5084469;28;20624;-90
2022/10/07 10:15:38;;;;;;;7.77;6.07;;;22.10;99.90;;;;;;5083646;28;21025;-90
2022/10/07 10:18:33;;;;;;;6.03;5.43;;;21.30;99.90;;;;;;5094530;28;20649;-90
2022/10/07 10:21:19;;;;;;;9.77;7.73;;;21.70;99.90;;;;;;5107653;28;20632;-90
2022/10/07 10:23:48;;;;;;;8.10;7.43;;;22.00;99.90;;;;;;5092731;28;20646;-90
2022/10/07 10:26:36;;;;;;;8.37;7.67;;;22.60;99.90;;;;;;5103617;28;20695;-91
2022/10/07 10:29:12;;;;;;;7.50;6.83;;;22.30;99.90;;;;;;5105497;28;20623;-89
2022/10/07 10:32:03;;;;;;;8.23;7.53;;;22.20;99.90;;;;;;5104585;28;20775;-92
2022/10/07 10:34:39;;;;;;;8.10;7.40;;;21.80;99.90;;;;;;5099766;28;20627;-92
2022/10/07 10:37:17;;;;;;;8.63;6.77;;;21.20;99.90;;;;;;5086211;28;20705;-93
2022/10/07 10:40:01;;;;;;;8.67;7.87;;;20.70;99.90;;;;;;5089147;28;20608;-92
2022/10/07 10:42:39;;;;;;;7.43;6.43;;;22.00;99.90;;;;;;5090342;28;20628;-90
2022/10/07 10:45:17;;;;;;;6.63;6.13;;;21.90;99.90;;;;;;5085268;28;20734;-91
2022/10/07 10:48:08;;;;;;;7.83;7.23;;;23.10;99.90;;;;;;5091503;28;20671;-91
2022/10/07 10:50:47;;;;;;;7.57;6.77;;;23.60;99.90;;;;;;5098189;28;20632;-91
2022/10/07 10:53:26;;;;;;;6.47;5.87;;;24.60;95.60;;;;;;5105797;28;20632;-92
2022/10/07 10:56:31;;;;;;;8.43;6.87;;;25.10;93.60;;;;;;5096304;28;20690;-91
2022/10/07 10:59:12;;;;;;;8.93;8.20;;;24.00;97.00;;;;;;5107470;28;20630;-91
2022/10/07 11:01:42;;;;;;;8.07;7.23;;;23.00;99.90;;;;;;5094449;28;20680;-90
2022/10/07 11:04:21;;;;;;;7.90;6.27;;;24.40;97.30;;;;;;5087801;28;21109;-92
2022/10/07 11:06:58;;;;;;;6.03;5.53;;;24.30;95.60;;;;;;5093467;28;20708;-91
2022/10/07 11:09:33;;;;;;;7.87;7.20;;;25.20;93.00;;;;;;5093016;28;20707;-91
2022/10/07 11:12:03;;;;;;;7.93;6.47;;;23.20;99.90;;;;;;5093360;28;20794;-91
2022/10/07 11:14:32;;;;;;;8.03;7.43;;;24.50;97.60;;;;;;5088198;28;20671;-92
2022/10/07 11:17:04;;;;;;;7.50;7.00;;;25.00;93.00;;;;;;5086791;28;20743;-91
2022/10/07 11:19:36;;;;;;;7.03;5.97;;;26.20;90.70;;;;;;5088976;28;21214;-91
2022/10/07 11:22:04;;;;;;;7.80;7.00;;;26.10;87.40;;;;;;5088214;28;20720;-91
2022/10/07 11:24:36;;;;;;;7.10;6.60;;;25.80;89.10;;;;;;5088657;28;20652;-91
2022/10/07 11:27:14;;;;;;;8.77;6.47;;;24.00;93.40;;;;;;5095511;28;20675;-90
2022/10/07 11:29:51;;;;;;;7.40;6.73;;;23.70;99.90;;;;;;5104366;28;20631;-90
2022/10/07 11:32:24;;;;;;;6.77;6.20;;;25.10;93.20;;;;;;5088410;28;20627;-91
2022/10/07 11:34:57;;;;;;;7.60;6.90;;;25.30;92.30;;;;;;5080964;28;20640;-92
2022/10/07 11:37:33;;;;;;;6.73;5.93;;;23.60;93.40;;;;;;5085484;28;20656;-91
2022/10/07 11:40:04;;;;;;;7.70;6.90;;;25.90;91.20;;;;;;5085021;28;20684;-90
2022/10/07 11:42:39;;;;;;;8.10;7.00;;;25.20;91.90;;;;;;5081902;28;20579;-91
2022/10/07 11:45:16;;;;;;;8.30;6.80;;;24.30;94.10;;;;;;5091701;28;20638;-90
2022/10/07 11:47:49;;;;;;;8.30;7.60;;;24.50;93.70;;;;;;5089110;28;20679;-91
2022/10/07 11:50:22;;;;;;;9.90;7.73;;;24.60;93.00;;;;;;5086993;28;20642;-91
2022/10/07 11:52:53;;;;;;;7.37;6.77;;;24.30;94.60;;;;;;5086841;28;20617;-91
2022/10/07 11:55:25;;;;;;;9.33;7.37;;;23.80;95.60;;;;;;5085944;28;21550;-92
2022/10/07 11:57:55;;;;;;;8.73;7.87;;;25.00;93.60;;;;;;5085657;28;20739;-91
2022/10/07 12:00:25;;;;;;;9.07;8.27;;;25.50;91.00;;;;;;5086183;28;20660;-91
2022/10/07 12:02:53;;;;;;;7.87;7.33;;;26.70;86.80;;;;;;5086248;28;20911;-91
2022/10/07 12:06:00;;;;;;;7.20;6.60;;;25.60;89.40;;;;;;5082648;28;20735;-92
2022/10/07 12:08:32;;;;;;;6.57;6.03;;;27.10;81.60;;;;;;5083303;28;21000;-91
2022/10/07 12:11:44;;;;;;;8.43;7.63;;;27.20;79.50;;;;;;5084375;28;20635;-91
2022/10/07 12:14:35;;;;;;;7.47;6.77;;;24.10;94.40;;;;;;5079166;28;20623;-91
2022/10/07 12:17:19;;;;;;;7.47;6.77;;;26.00;89.70;;;;;;5091146;28;20655;-91
2022/10/07 12:19:46;;;;;;;8.00;6.80;;;27.30;78.10;;;;;;5086380;28;20632;-91
2022/10/07 12:22:17;;;;;;;7.30;6.80;;;27.30;77.80;;;;;;5086961;28;20637;-91
2022/10/07 12:25:02;;;;;;;7.13;6.43;;;27.00;78.70;;;;;;5082078;28;20678;-92
2022/10/07 12:27:29;;;;;;;6.40;6.00;;;25.90;82.60;;;;;;5088074;28;20679;-91
2022/10/07 12:30:01;;;;;;;6.67;6.17;;;26.80;80.00;;;;;;5083593;28;20627;-91
2022/10/07 12:33:00;;;;;;;6.90;6.40;;;28.30;73.90;;;;;;5081631;28;20629;-92
2022/10/07 12:35:47;;;;;;;6.70;6.10;;;26.70;75.90;;;;;;5050577;28;20648;-91
2022/10/07 12:38:26;;;;;;;5.67;5.17;;;26.70;77.50;;;;;;5087689;28;21102;-92
2022/10/07 12:41:24;;;;;;;12.20;6.47;;;27.30;76.90;;;;;;5083020;28;20719;-92
2022/10/07 12:43:59;;;;;;;9.40;7.97;;;27.50;74.20;;;;;;5082270;28;20623;-91
2022/10/07 12:46:30;;;;;;;7.87;7.17;;;25.90;80.30;;;;;;5088159;28;20661;-92
2022/10/07 12:49:01;;;;;;;6.83;6.23;;;26.60;78.70;;;;;;5088100;28;20661;-91
2022/10/07 12:51:30;;;;;;;6.93;6.10;;;27.80;74.10;;;;;;5088457;28;20689;-91
2022/10/07 12:53:59;;;;;;;5.90;5.40;;;27.10;75.10;;;;;;5086592;28;20624;-90
2022/10/07 12:56:29;;;;;;;6.60;6.10;;;25.10;86.00;;;;;;5086254;28;20668;-91
2022/10/07 13:02:45;;;;;;;8.53;6.90;;;24.10;91.00;;;;;;5087237;28;20619;-90
2022/10/07 13:06:01;;;;;;;5.80;5.30;;;24.10;93.90;;;;;;5054675;28;20654;-90
2022/10/07 13:08:55;;;;;;;6.80;6.20;;;25.10;88.50;;;;;;5087490;28;21277;-91
2022/10/07 13:11:53;;;;;;;7.10;6.50;;;25.10;89.50;;;;;;5083475;28;20636;-90
2022/10/07 13:14:25;;;;;;;6.63;6.13;;;23.80;94.40;;;;;;5086198;28;20658;-91
2022/10/07 13:16:57;;;;;;;6.60;6.00;;;24.30;90.90;;;;;;5089877;28;21093;-91